Time;durP1;ratioP1;P1;durP2;ratioP2;P2;SDS_P1;SDS_P2;PMS_P1;PMS_P2;Temp;Humidity;BMP_temperature;BMP_pressure;BME280_temperature;BME280_humidity;BME280_pressure;Samples;Min_cycle;Max_cycle;Signal;HPM_P1;HPM_P2
2023/02/25 00:02:17;;;;;;;;;;;6.70;99.90;;;;;;5980983;23;19923;-73
2023/02/25 00:04:44;;;;;;;;;;;6.80;99.90;;;;;;5979193;23;19933;-74
2023/02/25 00:07:11;;;;;;;;;;;6.70;99.90;;;;;;5981936;23;19922;-73
2023/02/25 00:09:37;;;;;;;;;;;6.80;99.90;;;;;;5980820;23;19923;-73
2023/02/25 00:12:04;;;;;;;;;;;6.80;99.90;;;;;;5981815;23;20002;-73
2023/02/25 00:14:31;;;;;;;;;;;6.70;99.90;;;;;;5978869;23;20328;-74
2023/02/25 00:16:58;;;;;;;;;;;6.70;99.90;;;;;;5979846;24;19923;-72
2023/02/25 00:19:25;;;;;;;;;;;6.60;99.90;;;;;;5980046;24;19946;-74
2023/02/25 00:21:52;;;;;;;;;;;6.50;99.90;;;;;;5979248;23;19930;-73
2023/02/25 00:24:18;;;;;;;;;;;6.40;99.90;;;;;;5981464;23;19930;-73
2023/02/25 00:26:45;;;;;;;;;;;6.20;99.90;;;;;;5979696;23;19994;-73
2023/02/25 00:29:12;;;;;;;;;;;6.00;99.90;;;;;;5979640;24;19922;-73
2023/02/25 00:31:39;;;;;;;;;;;5.90;99.90;;;;;;5978886;23;19969;-75
2023/02/25 00:34:06;;;;;;;;;;;6.00;99.90;;;;;;5979767;24;19923;-73
2023/02/25 00:36:32;;;;;;;;;;;6.00;99.90;;;;;;5980104;24;19951;-74
2023/02/25 00:38:59;;;;;;;;;;;6.00;99.90;;;;;;5979215;23;19997;-73
2023/02/25 00:41:27;;;;;;;;;;;5.90;99.90;;;;;;5981464;23;19927;-73
2023/02/25 00:43:55;;;;;;;;;;;5.90;99.90;;;;;;5979144;23;19927;-73
2023/02/25 00:46:22;;;;;;;;;;;5.90;99.90;;;;;;5981167;23;19922;-73
2023/02/25 00:48:50;;;;;;;;;;;5.80;99.90;;;;;;5978858;23;20310;-73
2023/02/25 00:51:20;;;;;;;;;;;5.70;99.90;;;;;;5981189;23;19970;-74
2023/02/25 00:53:47;;;;;;;;;;;5.60;99.90;;;;;;5980382;23;20257;-73
2023/02/25 00:56:14;;;;;;;;;;;5.60;99.90;;;;;;5979813;24;19950;-73
2023/02/25 00:58:42;;;;;;;;;;;5.60;99.90;;;;;;5980306;23;19926;-76
2023/02/25 01:01:17;;;;;;;;;;;5.60;99.90;;;;;;5980587;23;19949;-73
2023/02/25 01:03:44;;;;;;;;;;;5.50;99.90;;;;;;5979271;23;19927;-73
2023/02/25 01:06:11;;;;;;;;;;;5.50;99.90;;;;;;5980581;23;19979;-75
2023/02/25 01:08:38;;;;;;;;;;;5.50;99.90;;;;;;5978952;24;19930;-75
2023/02/25 01:11:16;;;;;;;;;;;5.50;99.90;;;;;;5977733;23;19926;-73
2023/02/25 01:13:42;;;;;;;;;;;5.40;99.90;;;;;;5980371;23;19930;-75
2023/02/25 01:16:10;;;;;;;;;;;5.40;99.90;;;;;;5981537;23;19927;-73
2023/02/25 01:18:38;;;;;;;;;;;5.40;99.90;;;;;;5980555;23;20371;-75
2023/02/25 01:21:05;;;;;;;;;;;5.20;99.90;;;;;;5979740;23;19982;-74
2023/02/25 01:23:32;;;;;;;;;;;5.20;99.90;;;;;;5979688;24;19965;-75
2023/02/25 01:25:59;;;;;;;;;;;5.20;99.90;;;;;;5980133;23;20006;-75
2023/02/25 01:28:27;;;;;;;;;;;5.20;99.90;;;;;;5979555;24;19923;-75
2023/02/25 01:30:54;;;;;;;;;;;5.10;99.90;;;;;;5980244;23;19933;-76
2023/02/25 01:33:21;;;;;;;;;;;5.20;99.90;;;;;;5979551;24;19927;-73
2023/02/25 01:35:48;;;;;;;;;;;5.10;99.90;;;;;;5978619;23;19942;-75
2023/02/25 01:38:14;;;;;;;;;;;5.00;99.90;;;;;;5980639;23;19927;-73
2023/02/25 01:40:41;;;;;;;;;;;4.90;99.90;;;;;;5980871;23;20281;-76
2023/02/25 01:43:13;;;;;;;;;;;4.80;99.90;;;;;;5980025;23;19978;-75
2023/02/25 01:45:43;;;;;;;;;;;4.80;99.90;;;;;;5979213;24;19997;-75
2023/02/25 01:48:15;;;;;;;;;;;4.70;99.90;;;;;;5978751;23;20005;-75
2023/02/25 01:50:54;;;;;;;;;;;4.70;99.90;;;;;;5979142;24;19947;-74
2023/02/25 01:53:23;;;;;;;;;;;4.70;99.90;;;;;;5978899;23;19923;-75
2023/02/25 01:55:51;;;;;;;;;;;4.70;99.90;;;;;;6002489;23;19958;-75
2023/02/25 01:58:18;;;;;;;;;;;4.80;99.90;;;;;;5980136;23;19929;-75
2023/02/25 02:00:46;;;;;;;;;;;4.70;99.90;;;;;;5980590;23;20021;-75
2023/02/25 19:31:08;;;;;;;8.15;7.60;;;7.20;99.90;;;;;;6048486;23;20401;-78
2023/02/25 19:33:35;;;;;;;7.93;7.43;;;7.30;99.90;;;;;;6094605;23;20830;-78
2023/02/25 19:36:03;;;;;;;7.68;7.18;;;7.30;99.90;;;;;;6120784;23;20762;-78
2023/02/25 19:38:30;;;;;;;6.50;6.10;;;7.40;99.90;;;;;;6071988;23;20379;-78
2023/02/25 19:41:03;;;;;;;18.33;16.83;;;7.40;99.90;;;;;;6098589;23;20481;-78
2023/02/25 19:43:32;;;;;;;8.63;7.90;;;7.30;99.90;;;;;;6098208;23;20383;-78
2023/02/25 19:45:59;;;;;;;11.00;10.20;;;7.30;99.90;;;;;;6097693;23;20809;-78
2023/02/25 19:48:26;;;;;;;6.60;6.18;;;7.20;99.90;;;;;;6096954;23;20375;-78
2023/02/25 19:50:54;;;;;;;5.90;5.50;;;7.30;99.90;;;;;;6097109;23;20921;-80
2023/02/25 19:53:21;;;;;;;6.13;5.72;;;7.40;99.90;;;;;;6096462;23;20707;-79
2023/02/25 19:55:49;;;;;;;6.38;5.88;;;7.60;99.90;;;;;;6094323;23;20920;-79
2023/02/25 19:58:16;;;;;;;5.82;5.45;;;7.60;99.90;;;;;;6044936;23;20385;-80
2023/02/25 20:00:44;;;;;;;4.25;3.97;;;7.50;99.90;;;;;;6121826;23;20380;-80
2023/02/25 20:03:13;;;;;;;4.20;3.90;;;7.40;99.90;;;;;;6078494;23;20381;-81
2023/02/25 20:05:40;;;;;;;4.82;4.53;;;7.40;99.90;;;;;;5918711;23;20391;-79
2023/02/25 20:08:07;;;;;;;4.70;4.40;;;7.30;99.90;;;;;;6062092;23;20400;-80
2023/02/25 20:10:35;;;;;;;4.23;4.03;;;7.20;99.90;;;;;;5981853;23;89927;-81
2023/02/25 20:13:01;;;;;;;3.92;3.63;;;7.20;99.90;;;;;;6011177;23;20460;-81
2023/02/25 20:15:28;;;;;;;4.70;4.40;;;7.10;99.90;;;;;;5987595;23;20395;-79
2023/02/25 20:17:56;;;;;;;4.50;4.20;;;7.20;99.90;;;;;;6011761;23;20727;-80
2023/02/25 20:20:23;;;;;;;4.17;3.97;;;7.10;99.90;;;;;;6011034;23;20456;-80
2023/02/25 20:22:50;;;;;;;4.10;3.85;;;7.20;99.90;;;;;;6011281;23;20448;-79
2023/02/25 20:25:17;;;;;;;4.60;4.30;;;7.20;99.90;;;;;;6034967;23;20389;-80
2023/02/25 20:27:44;;;;;;;4.15;3.85;;;7.20;99.90;;;;;;5989304;23;20388;-80
2023/02/25 20:30:14;;;;;;;4.05;3.75;;;7.20;99.90;;;;;;6012305;23;20385;-79
2023/02/25 20:32:43;;;;;;;4.63;4.32;;;7.20;99.90;;;;;;6032367;23;20720;-78
2023/02/25 20:35:16;;;;;;;4.43;4.15;;;7.20;99.90;;;;;;6009813;23;20453;-81
2023/02/25 20:38:07;;;;;;;4.55;4.25;;;7.20;99.90;;;;;;6009832;23;20436;-79
2023/02/25 20:40:34;;;;;;;4.80;4.50;;;7.20;99.90;;;;;;6033491;23;20704;-80
2023/02/25 20:43:01;;;;;;;4.50;4.20;;;6.80;99.90;;;;;;6011423;23;20440;-80
2023/02/25 20:45:29;;;;;;;5.15;4.75;;;6.50;99.90;;;;;;6010090;23;20400;-80
2023/02/25 20:47:56;;;;;;;4.63;4.32;;;6.30;99.90;;;;;;6010518;23;20421;-81
2023/02/25 20:50:27;;;;;;;6.00;5.60;;;6.20;99.90;;;;;;6009015;23;20389;-80
2023/02/25 20:52:55;;;;;;;6.88;6.47;;;6.10;99.90;;;;;;6010316;23;20869;-80
2023/02/25 20:55:22;;;;;;;5.63;5.32;;;6.20;99.90;;;;;;6008964;23;20388;-81
2023/02/25 20:57:49;;;;;;;6.57;6.07;;;6.20;99.90;;;;;;6010814;23;20501;-80
2023/02/25 21:00:18;;;;;;;6.57;6.18;;;6.20;99.90;;;;;;6009441;23;20416;-81
2023/02/25 21:02:45;;;;;;;4.05;3.75;;;6.20;99.90;;;;;;6010836;23;20384;-80
2023/02/25 21:05:12;;;;;;;4.70;4.40;;;6.30;99.90;;;;;;6010656;23;20437;-80
2023/02/25 21:07:39;;;;;;;5.18;4.88;;;6.00;99.90;;;;;;6008675;23;20396;-80
2023/02/25 21:10:09;;;;;;;6.25;5.75;;;5.90;99.90;;;;;;6035057;23;20398;-80
2023/02/25 21:12:36;;;;;;;6.72;6.22;;;5.80;99.90;;;;;;6008787;23;20878;-80
2023/02/25 21:15:03;;;;;;;6.38;5.93;;;5.90;99.90;;;;;;6010666;23;20392;-80
2023/02/25 21:17:30;;;;;;;5.78;5.47;;;6.10;99.90;;;;;;6034950;23;20432;-81
2023/02/25 21:19:57;;;;;;;5.65;5.25;;;6.20;99.90;;;;;;6011861;23;20508;-80
2023/02/25 21:22:24;;;;;;;5.00;4.70;;;6.30;99.90;;;;;;6011276;23;20377;-79
2023/02/25 21:24:50;;;;;;;5.18;4.85;;;6.30;99.90;;;;;;6012042;23;20413;-81
2023/02/25 21:27:17;;;;;;;4.70;4.40;;;6.30;99.90;;;;;;6010755;23;20393;-78
2023/02/25 21:29:44;;;;;;;5.47;5.18;;;6.30;99.90;;;;;;6008544;23;20385;-81
2023/02/25 21:32:11;;;;;;;10.38;9.75;;;6.30;99.90;;;;;;6034663;23;20393;-81
2023/02/25 21:34:38;;;;;;;6.80;6.40;;;6.20;99.90;;;;;;6009141;23;20412;-80
2023/02/25 21:37:05;;;;;;;5.20;4.82;;;6.30;99.90;;;;;;6009145;23;20719;-81
2023/02/25 21:39:32;;;;;;;5.70;5.30;;;6.20;99.90;;;;;;6008735;23;20380;-80
2023/02/25 21:41:59;;;;;;;5.18;4.88;;;6.20;99.90;;;;;;6010109;23;20389;-80
2023/02/25 21:44:26;;;;;;;5.28;4.97;;;6.20;99.90;;;;;;6010184;23;20685;-80
2023/02/25 21:46:53;;;;;;;5.23;4.93;;;6.20;99.90;;;;;;6035338;23;20720;-80
2023/02/25 21:49:20;;;;;;;5.88;5.53;;;6.20;99.90;;;;;;6036026;23;20384;-79
2023/02/25 21:51:48;;;;;;;5.20;4.90;;;6.20;99.90;;;;;;6009376;23;20661;-79
2023/02/25 21:54:16;;;;;;;5.50;5.10;;;6.20;99.90;;;;;;6034111;23;20877;-80
2023/02/25 21:56:43;;;;;;;5.38;5.05;;;6.20;99.90;;;;;;6010440;23;20396;-80
2023/02/25 21:59:10;;;;;;;5.22;4.88;;;6.20;99.90;;;;;;6011132;23;20451;-79
2023/02/25 22:01:39;;;;;;;5.47;5.18;;;6.20;99.90;;;;;;6010193;23;20389;-79
2023/02/25 22:04:07;;;;;;;5.05;4.75;;;6.20;99.90;;;;;;6012084;23;20773;-80
2023/02/25 22:06:35;;;;;;;5.00;4.70;;;6.00;99.90;;;;;;6010911;23;20460;-83
2023/02/25 22:09:02;;;;;;;5.43;5.05;;;5.90;99.90;;;;;;5988390;23;20440;-80
2023/02/25 22:11:32;;;;;;;4.70;4.40;;;5.70;99.90;;;;;;6011847;23;20391;-81
2023/02/25 22:14:00;;;;;;;3.80;3.60;;;5.50;99.90;;;;;;6035224;23;20764;-80
2023/02/25 22:16:27;;;;;;;4.78;4.47;;;5.30;99.90;;;;;;6010424;23;20389;-80
2023/02/25 22:18:55;;;;;;;4.55;4.25;;;5.30;99.90;;;;;;6009546;23;20423;-83
2023/02/25 22:21:24;;;;;;;5.55;5.20;;;5.10;99.90;;;;;;6010258;23;20385;-81
2023/02/25 22:23:54;;;;;;;5.68;5.25;;;4.90;99.90;;;;;;6008364;23;20411;-81
2023/02/25 22:26:24;;;;;;;4.70;4.40;;;4.90;99.90;;;;;;6011801;23;20377;-80
2023/02/25 22:29:00;;;;;;;5.38;5.00;;;4.90;99.90;;;;;;6010890;23;20392;-80
2023/02/25 22:31:28;;;;;;;4.80;4.60;;;4.90;99.90;;;;;;6009991;23;20389;-81
2023/02/25 22:33:56;;;;;;;4.85;4.55;;;4.90;99.90;;;;;;6031765;23;20388;-82
2023/02/25 22:36:23;;;;;;;5.05;4.75;;;5.00;99.90;;;;;;6009440;23;20389;-80
2023/02/25 22:38:52;;;;;;;4.50;4.30;;;5.00;99.90;;;;;;6033162;23;20934;-80
2023/02/25 22:41:22;;;;;;;4.78;4.47;;;5.00;99.90;;;;;;6010864;23;20407;-79
2023/02/25 22:43:49;;;;;;;4.70;4.40;;;5.10;99.90;;;;;;6009021;23;20419;-80
2023/02/25 22:46:22;;;;;;;5.78;5.38;;;5.10;99.90;;;;;;6010077;23;20918;-80
2023/02/25 22:48:50;;;;;;;5.22;4.95;;;5.10;99.90;;;;;;6009246;23;20403;-81
2023/02/25 22:51:19;;;;;;;5.72;5.40;;;5.10;99.90;;;;;;6009333;23;20384;-79
2023/02/25 22:53:46;;;;;;;5.03;4.72;;;5.10;99.90;;;;;;6008272;23;20384;-80
2023/02/25 22:56:14;;;;;;;5.55;5.25;;;5.10;99.90;;;;;;6009109;23;20673;-78
2023/02/25 22:58:41;;;;;;;5.00;4.70;;;5.20;99.90;;;;;;6008054;23;20859;-78
2023/02/25 23:01:11;;;;;;;4.45;4.15;;;5.20;99.90;;;;;;6010415;23;20380;-80
2023/02/25 23:03:38;;;;;;;4.43;4.13;;;5.20;99.90;;;;;;6009005;23;20499;-79
2023/02/25 23:06:06;;;;;;;5.78;5.38;;;5.20;99.90;;;;;;5988760;23;20752;-79
2023/02/25 23:08:34;;;;;;;4.57;4.28;;;5.10;99.90;;;;;;6011360;23;20385;-78
2023/02/25 23:11:13;;;;;;;4.65;4.45;;;4.90;99.90;;;;;;6011278;23;20476;-80
2023/02/25 23:13:46;;;;;;;4.57;4.28;;;4.80;99.90;;;;;;6011820;23;20403;-78
2023/02/25 23:16:15;;;;;;;4.20;4.00;;;4.60;99.90;;;;;;5989860;23;20439;-81
2023/02/25 23:18:42;;;;;;;4.85;4.55;;;4.50;99.90;;;;;;6012620;23;20427;-78
2023/02/25 23:21:15;;;;;;;4.43;4.23;;;4.40;99.90;;;;;;6011260;23;20861;-78
2023/02/25 23:23:42;;;;;;;4.85;4.55;;;4.30;99.90;;;;;;6009876;23;20431;-80
2023/02/25 23:26:12;;;;;;;4.82;4.53;;;4.20;99.90;;;;;;5986715;23;20384;-80
2023/02/25 23:28:39;;;;;;;4.35;4.05;;;4.10;99.90;;;;;;6011265;23;20780;-81
2023/02/25 23:31:07;;;;;;;4.47;4.20;;;4.10;99.90;;;;;;6011134;23;20380;-80
2023/02/25 23:33:34;;;;;;;5.07;4.77;;;4.00;99.90;;;;;;6035467;23;20423;-79
2023/02/25 23:36:05;;;;;;;4.43;4.22;;;3.90;99.90;;;;;;6011820;23;20586;-79
2023/02/25 23:38:31;;;;;;;4.20;4.00;;;4.00;99.90;;;;;;6010885;23;20395;-81
2023/02/25 23:40:59;;;;;;;4.17;3.97;;;4.00;99.90;;;;;;6010977;23;20389;-80
2023/02/25 23:43:26;;;;;;;5.00;4.70;;;4.00;99.90;;;;;;6011014;23;20388;-80
2023/02/25 23:45:53;;;;;;;5.70;5.30;;;4.10;99.90;;;;;;5987436;23;20479;-80
2023/02/25 23:48:19;;;;;;;5.10;4.80;;;4.20;99.90;;;;;;6011209;23;20729;-79
2023/02/25 23:50:49;;;;;;;4.88;4.57;;;4.20;99.90;;;;;;6035473;23;20421;-79
2023/02/25 23:53:16;;;;;;;4.90;4.60;;;4.20;99.90;;;;;;6011437;23;20756;-79
2023/02/25 23:55:43;;;;;;;4.75;4.45;;;4.20;99.90;;;;;;6012280;23;20381;-78
2023/02/25 23:58:10;;;;;;;3.97;3.78;;;4.20;99.90;;;;;;6011717;23;20373;-79
